createdAt,value
2019-05-23T00:00:59.194Z,5.23
2019-05-23T00:03:38.124Z,5.47
2019-05-23T00:06:11.338Z,5.30
2019-05-23T00:08:42.885Z,5.43
2019-05-23T00:11:33.472Z,6.60
2019-05-23T00:14:08.400Z,6.20
2019-05-23T00:16:40.615Z,5.17
2019-05-23T00:19:11.885Z,5.40
2019-05-23T00:21:44.035Z,4.70
2019-05-23T00:24:15.252Z,4.60
2019-05-23T00:26:47.254Z,5.10
2019-05-23T00:29:19.249Z,5.03
2019-05-23T00:32:00.369Z,5.60
2019-05-23T00:34:34.118Z,4.87
2019-05-23T00:37:07.127Z,5.20
2019-05-23T00:39:38.421Z,4.83
2019-05-23T00:42:10.987Z,5.03
2019-05-23T00:44:42.213Z,5.43
2019-05-23T00:47:13.798Z,5.20
2019-05-23T00:49:47.230Z,5.80
2019-05-23T00:52:18.691Z,5.30
2019-05-23T00:54:50.659Z,5.00
2019-05-23T00:57:21.863Z,4.70
2019-05-23T00:59:53.087Z,6.50
2019-05-23T01:02:25.398Z,5.00
2019-05-23T01:04:56.640Z,4.57
2019-05-23T01:07:28.004Z,5.07
2019-05-23T01:10:00.574Z,4.73
2019-05-23T01:12:33.099Z,5.00
2019-05-23T01:15:06.616Z,4.60
2019-05-23T01:17:38.285Z,4.70
2019-05-23T01:20:12.309Z,5.07
2019-05-23T01:22:43.681Z,4.97
2019-05-23T01:25:16.167Z,4.43
2019-05-23T01:27:47.778Z,4.50
2019-05-23T01:30:22.506Z,5.00
2019-05-23T01:32:55.768Z,4.20
2019-05-23T01:35:27.881Z,4.40
2019-05-23T01:38:03.412Z,4.50
2019-05-23T01:40:33.291Z,3.80
2019-05-23T01:43:05.291Z,4.40
2019-05-23T01:45:38.390Z,4.50
2019-05-23T01:48:11.194Z,4.80
2019-05-23T01:50:43.075Z,4.63
2019-05-23T01:53:15.849Z,4.40
2019-05-23T01:55:47.854Z,3.63
2019-05-23T01:58:20.085Z,6.07
2019-05-23T02:00:51.364Z,6.00
2019-05-23T02:03:23.221Z,5.33
2019-05-23T02:05:54.802Z,4.70
2019-05-23T02:08:26.017Z,4.40
2019-05-23T02:10:57.244Z,4.47
2019-05-23T02:13:28.378Z,4.20
2019-05-23T02:16:00.422Z,4.40
2019-05-23T02:18:32.390Z,4.20
2019-05-23T02:21:05.344Z,4.20
2019-05-23T02:23:36.547Z,3.77
2019-05-23T02:26:08.911Z,4.10
2019-05-23T02:28:41.393Z,5.27
2019-05-23T02:31:14.279Z,5.63
2019-05-23T02:33:46.073Z,5.03
2019-05-23T02:36:17.703Z,4.03
2019-05-23T02:39:16.428Z,4.33
2019-05-23T02:41:57.914Z,3.80
2019-05-23T02:44:32.132Z,3.67
2019-05-23T02:47:14.737Z,4.10
2019-05-23T02:49:47.922Z,4.43
2019-05-23T02:52:46.417Z,4.20
2019-05-23T02:55:38.905Z,4.70
2019-05-23T02:58:38.983Z,4.23
2019-05-23T03:01:49.202Z,3.73
2019-05-23T03:04:24.996Z,3.73
2019-05-23T03:06:56.488Z,4.50
2019-05-23T03:09:34.028Z,3.70
2019-05-23T03:12:07.404Z,4.47
2019-05-23T03:14:39.580Z,4.17
2019-05-23T03:17:16.331Z,4.00
2019-05-23T03:19:56.050Z,3.63
2019-05-23T03:22:54.231Z,3.77
2019-05-23T03:26:16.675Z,4.07
2019-05-23T03:28:48.472Z,4.33
2019-05-23T03:31:31.492Z,3.20
2019-05-23T03:34:00.309Z,3.30
2019-05-23T03:36:31.797Z,3.37
2019-05-23T03:39:04.196Z,4.03
2019-05-23T03:41:35.885Z,3.10
2019-05-23T03:44:09.038Z,4.33
2019-05-23T03:46:44.631Z,3.73
2019-05-23T03:49:16.391Z,4.10
2019-05-23T03:51:48.028Z,3.90
2019-05-23T03:54:21.104Z,3.47
2019-05-23T03:56:52.325Z,4.20
2019-05-23T03:59:24.907Z,3.67
2019-05-23T04:01:56.775Z,3.77
2019-05-23T04:04:28.372Z,4.30
2019-05-23T04:06:59.740Z,3.80
2019-05-23T04:09:31.165Z,4.73
2019-05-23T04:12:02.388Z,5.13
2019-05-23T04:14:33.879Z,4.37
2019-05-23T04:17:06.585Z,3.80
2019-05-23T04:19:37.898Z,4.57
2019-05-23T04:22:09.349Z,3.73
2019-05-23T04:24:40.747Z,3.87
2019-05-23T04:27:12.365Z,4.90
2019-05-23T04:29:43.678Z,4.13
2019-05-23T04:32:14.976Z,5.17
2019-05-23T04:34:46.250Z,4.30
2019-05-23T04:37:17.551Z,5.03
2019-05-23T04:39:48.848Z,4.57
2019-05-23T04:42:20.230Z,4.93
2019-05-23T04:44:51.539Z,5.07
2019-05-23T04:47:23.863Z,4.50
2019-05-23T04:49:55.284Z,4.73
2019-05-23T04:52:27.325Z,5.10
2019-05-23T04:54:58.994Z,4.80
2019-05-23T04:57:30.855Z,4.90
2019-05-23T05:00:03.352Z,4.87
2019-05-23T05:02:34.634Z,5.17
2019-05-23T05:05:07.905Z,5.50
2019-05-23T05:07:39.122Z,5.13
2019-05-23T05:10:12.224Z,5.20
2019-05-23T05:12:44.155Z,5.67
2019-05-23T05:15:15.436Z,5.50
2019-05-23T05:17:47.272Z,6.03
2019-05-23T05:20:18.558Z,5.97
2019-05-23T05:22:51.251Z,5.80
2019-05-23T05:25:22.627Z,5.73
2019-05-23T05:27:53.849Z,5.40
2019-05-23T05:30:34.140Z,5.47
2019-05-23T05:33:05.494Z,6.07
2019-05-23T05:35:36.738Z,5.07
2019-05-23T05:38:07.942Z,6.20
2019-05-23T05:40:39.642Z,6.47
2019-05-23T05:43:11.045Z,5.63
2019-05-23T05:45:42.300Z,6.43
2019-05-23T05:48:13.536Z,4.80
2019-05-23T05:50:44.759Z,5.47
2019-05-23T05:53:15.957Z,4.80
2019-05-23T05:55:47.208Z,6.57
2019-05-23T05:58:18.387Z,7.30
2019-05-23T06:00:54.241Z,7.30
2019-05-23T06:03:25.357Z,6.23
2019-05-23T06:06:03.484Z,6.97
2019-05-23T06:08:36.627Z,6.13
2019-05-23T06:11:08.132Z,6.13
2019-05-23T06:13:39.424Z,6.70
2019-05-23T06:16:10.902Z,7.23
2019-05-23T06:18:42.110Z,6.60
2019-05-23T06:21:15.085Z,7.10
2019-05-23T06:23:46.649Z,7.60
2019-05-23T06:26:17.896Z,7.80
2019-05-23T06:28:49.716Z,7.93
2019-05-23T06:31:21.611Z,6.80
2019-05-23T06:33:53.631Z,6.57
2019-05-23T06:36:24.863Z,7.07
2019-05-23T06:38:56.803Z,6.80
2019-05-23T06:41:28.308Z,7.90
2019-05-23T06:43:59.497Z,8.70
2019-05-23T06:46:30.810Z,6.83
2019-05-23T06:49:02.203Z,7.37
2019-05-23T06:51:33.477Z,8.23
2019-05-23T06:54:05.130Z,7.93
2019-05-23T06:56:36.681Z,7.90
2019-05-23T06:59:08.099Z,6.87
2019-05-23T07:01:39.298Z,6.90
2019-05-23T07:04:10.615Z,8.10
2019-05-23T07:06:41.864Z,8.37
2019-05-23T07:09:16.008Z,6.47
2019-05-23T07:11:47.196Z,8.03
2019-05-23T07:14:18.436Z,7.73
2019-05-23T07:16:50.428Z,7.83
2019-05-23T07:19:22.204Z,7.97
2019-05-23T07:21:53.866Z,7.97
2019-05-23T07:24:25.647Z,8.40
2019-05-23T07:26:56.999Z,7.30
2019-05-23T07:29:28.282Z,8.80
2019-05-23T07:31:59.514Z,8.57
2019-05-23T07:34:30.742Z,8.30
2019-05-23T07:37:01.946Z,9.37
2019-05-23T07:39:33.170Z,8.47
2019-05-23T07:42:04.932Z,9.03
2019-05-23T07:44:47.861Z,9.17
2019-05-23T07:47:11.677Z,8.90
2019-05-23T07:49:43.052Z,7.50
2019-05-23T07:52:14.311Z,7.87
2019-05-23T07:54:59.731Z,8.60
2019-05-23T07:57:31.305Z,8.23
2019-05-23T08:00:04.571Z,8.13
2019-05-23T08:02:38.971Z,8.10
2019-05-23T08:05:11.854Z,8.37
2019-05-23T08:07:43.202Z,7.53
2019-05-23T08:10:32.197Z,7.70
2019-05-23T08:12:47.604Z,8.10
2019-05-23T08:15:18.900Z,7.77
2019-05-23T08:17:50.287Z,7.60
2019-05-23T08:20:21.683Z,7.80
2019-05-23T08:22:52.933Z,7.97
2019-05-23T08:25:25.793Z,7.47
2019-05-23T08:27:57.108Z,7.50
2019-05-23T08:30:28.394Z,7.37
2019-05-23T08:32:59.863Z,7.20
2019-05-23T08:37:21.217Z,6.87
2019-05-23T08:39:54.789Z,7.37
2019-05-23T08:42:26.986Z,7.73
2019-05-23T08:44:59.274Z,7.03
2019-05-23T08:47:32.361Z,7.73
2019-05-23T08:50:04.794Z,6.70
2019-05-23T08:52:36.981Z,6.80
2019-05-23T08:55:20.810Z,7.70
2019-05-23T08:57:53.834Z,8.03
2019-05-23T09:00:27.791Z,7.93
2019-05-23T09:03:02.052Z,7.67
2019-05-23T09:05:34.412Z,8.37
2019-05-23T09:08:06.694Z,8.07
2019-05-23T09:10:39.592Z,8.63
2019-05-23T09:13:12.845Z,9.00
2019-05-23T09:15:45.244Z,9.10
2019-05-23T09:18:17.456Z,9.00
2019-05-23T09:20:49.708Z,9.33
2019-05-23T09:23:22.058Z,9.43
2019-05-23T09:25:54.300Z,9.20
2019-05-23T09:28:26.649Z,8.50
2019-05-23T09:30:59.099Z,7.83
2019-05-23T09:33:31.759Z,8.13
2019-05-23T09:36:03.990Z,8.07
2019-05-23T09:38:36.291Z,8.93
2019-05-23T09:41:08.560Z,8.77
2019-05-23T09:43:40.678Z,8.97
2019-05-23T09:46:13.071Z,8.37
2019-05-23T09:48:45.370Z,9.23
2019-05-23T09:51:17.717Z,8.87
2019-05-23T09:53:51.139Z,8.47
2019-05-23T09:56:23.472Z,8.03
2019-05-23T09:58:55.803Z,8.50
2019-05-23T10:01:28.058Z,8.80
2019-05-23T10:04:00.304Z,8.23
2019-05-23T10:06:32.793Z,7.33
2019-05-23T10:09:06.774Z,8.33
2019-05-23T10:11:38.987Z,8.50
2019-05-23T10:14:15.799Z,9.43
2019-05-23T10:16:48.116Z,8.60
2019-05-23T10:19:20.248Z,7.93
2019-05-23T10:21:52.554Z,7.60
2019-05-23T10:24:25.002Z,8.03
2019-05-23T10:26:57.311Z,8.53
2019-05-23T10:29:29.537Z,8.60
2019-05-23T10:32:01.759Z,9.13
2019-05-23T10:34:34.042Z,8.20
2019-05-23T10:37:08.227Z,8.60
2019-05-23T10:39:42.527Z,7.67
2019-05-23T10:42:14.789Z,8.43
2019-05-23T10:44:46.992Z,8.30
2019-05-23T10:47:19.854Z,7.93
2019-05-23T10:49:52.049Z,8.00
2019-05-23T10:52:24.467Z,8.53
2019-05-23T10:54:56.660Z,8.13
2019-05-23T10:57:28.871Z,8.70
2019-05-23T11:00:01.139Z,8.60
2019-05-23T11:02:35.143Z,8.20
2019-05-23T11:05:12.765Z,7.53
2019-05-23T11:07:42.854Z,7.43
2019-05-23T11:10:16.145Z,7.63
2019-05-23T11:12:48.449Z,7.00
2019-05-23T11:15:20.757Z,7.23
2019-05-23T11:17:53.962Z,7.10
2019-05-23T11:20:26.994Z,7.47
2019-05-23T11:22:59.226Z,8.10
2019-05-23T11:25:32.456Z,6.90
2019-05-23T11:28:04.913Z,7.10
2019-05-23T11:30:53.862Z,7.63
2019-05-23T11:33:26.241Z,6.83
2019-05-23T11:35:58.798Z,7.20
2019-05-23T11:38:31.306Z,7.03
2019-05-23T11:41:03.840Z,7.47
2019-05-23T11:43:36.069Z,8.47
2019-05-23T11:46:21.780Z,7.80
2019-05-23T11:48:54.451Z,7.47
2019-05-23T11:51:27.331Z,7.30
2019-05-23T11:54:07.523Z,6.57
2019-05-23T11:56:35.202Z,6.93
2019-05-23T11:59:07.755Z,7.13
2019-05-23T12:02:05.175Z,7.07
2019-05-23T12:04:40.140Z,6.80
2019-05-23T12:07:16.997Z,6.53
2019-05-23T12:09:49.365Z,6.90
2019-05-23T12:12:21.581Z,6.60
2019-05-23T12:14:54.332Z,6.30
2019-05-23T12:17:29.626Z,5.97
2019-05-23T12:20:01.857Z,5.77
2019-05-23T12:22:34.556Z,5.93
2019-05-23T12:25:20.954Z,5.30
2019-05-23T12:27:42.324Z,5.37
2019-05-23T12:30:16.090Z,6.43
2019-05-23T12:32:48.288Z,5.87
2019-05-23T12:35:20.737Z,5.70
2019-05-23T12:37:52.984Z,5.77
2019-05-23T12:40:25.210Z,5.87
2019-05-23T12:42:57.513Z,5.80
2019-05-23T12:45:29.791Z,6.00
2019-05-23T12:48:06.708Z,6.57
2019-05-23T12:50:41.764Z,5.97
2019-05-23T12:53:15.420Z,6.10
2019-05-23T12:55:47.668Z,5.77
2019-05-23T12:58:19.880Z,5.80
2019-05-23T13:00:57.053Z,5.60
2019-05-23T13:03:29.725Z,6.10
2019-05-23T13:06:02.031Z,6.50
2019-05-23T13:08:34.287Z,5.90
2019-05-23T13:11:06.718Z,6.37
2019-05-23T13:13:38.987Z,6.50
2019-05-23T13:16:11.248Z,6.40
2019-05-23T13:18:43.523Z,5.70
2019-05-23T13:21:15.759Z,5.23
2019-05-23T13:23:48.013Z,5.90
2019-05-23T13:26:20.467Z,5.83
2019-05-23T13:28:52.697Z,6.00
2019-05-23T13:31:25.290Z,5.63
2019-05-23T13:33:57.574Z,6.17
2019-05-23T13:36:29.812Z,5.70
2019-05-23T13:39:02.111Z,6.00
2019-05-23T13:41:34.605Z,5.43
2019-05-23T13:44:07.325Z,5.67
2019-05-23T13:46:39.520Z,5.47
2019-05-23T13:49:12.183Z,5.17
2019-05-23T13:51:44.645Z,5.40
2019-05-23T13:54:16.909Z,4.83
2019-05-23T13:56:50.350Z,4.73
2019-05-23T13:59:22.635Z,4.77
2019-05-23T14:01:54.989Z,4.03
2019-05-23T14:04:27.441Z,4.83
2019-05-23T14:07:00.739Z,4.50
2019-05-23T14:09:33.034Z,4.57
2019-05-23T14:12:20.729Z,4.47
2019-05-23T14:14:39.723Z,4.13
2019-05-23T14:17:26.108Z,3.70
2019-05-23T14:19:58.328Z,3.90
2019-05-23T14:22:32.889Z,4.27
2019-05-23T14:25:06.361Z,4.23
2019-05-23T14:27:48.181Z,4.37
2019-05-23T14:30:34.205Z,3.90
2019-05-23T14:33:09.509Z,4.60
2019-05-23T14:35:42.536Z,4.20
2019-05-23T14:38:29.608Z,5.10
2019-05-23T14:40:50.705Z,4.90
2019-05-23T14:43:25.866Z,4.93
2019-05-23T14:46:12.338Z,4.60
2019-05-23T14:49:01.832Z,4.03
2019-05-23T14:51:49.396Z,3.80
2019-05-23T14:54:43.697Z,4.10
2019-05-23T14:57:16.184Z,4.50
2019-05-23T14:59:48.703Z,4.47
2019-05-23T15:02:21.625Z,4.70
2019-05-23T15:04:53.971Z,4.63
2019-05-23T15:07:26.338Z,4.20
2019-05-23T15:09:58.750Z,4.43
2019-05-23T15:12:31.244Z,3.90
2019-05-23T15:15:03.746Z,4.20
2019-05-23T15:17:36.191Z,4.23
2019-05-23T15:20:08.612Z,4.60
2019-05-23T15:22:40.997Z,4.10
2019-05-23T15:25:13.403Z,4.30
2019-05-23T15:27:45.647Z,4.57
2019-05-23T15:30:18.462Z,3.93
2019-05-23T15:32:50.765Z,4.07
2019-05-23T15:35:23.117Z,4.27
2019-05-23T15:37:55.465Z,4.57
2019-05-23T15:40:28.144Z,4.47
2019-05-23T15:43:00.313Z,4.80
2019-05-23T15:45:32.881Z,4.30
2019-05-23T15:48:05.200Z,4.10
2019-05-23T15:50:43.199Z,3.83
2019-05-23T15:53:24.075Z,3.43
2019-05-23T15:56:27.014Z,3.70
2019-05-23T15:58:59.599Z,3.90
2019-05-23T16:01:43.228Z,3.70
2019-05-23T16:04:17.334Z,3.57
2019-05-23T16:06:51.125Z,3.60
2019-05-23T16:09:30.287Z,4.07
2019-05-23T16:11:57.993Z,3.70
2019-05-23T16:14:31.236Z,3.53
2019-05-23T16:17:05.286Z,3.50
2019-05-23T16:19:37.822Z,3.60
2019-05-23T16:22:10.528Z,4.23
2019-05-23T16:24:42.919Z,3.33
2019-05-23T16:27:15.509Z,3.50
2019-05-23T16:29:47.814Z,3.77
2019-05-23T16:32:20.148Z,4.00
2019-05-23T16:34:52.521Z,3.80
2019-05-23T16:37:25.201Z,3.70
2019-05-23T16:39:57.566Z,4.13
2019-05-23T16:42:30.374Z,3.40
2019-05-23T16:45:02.686Z,3.70
2019-05-23T16:47:35.156Z,3.87
2019-05-23T16:50:07.499Z,3.80
2019-05-23T16:52:39.896Z,3.23
2019-05-23T16:55:19.345Z,3.27
2019-05-23T16:57:56.395Z,3.60
2019-05-23T17:00:48.370Z,3.50
2019-05-23T17:03:49.970Z,3.37
2019-05-23T17:06:48.966Z,3.40
2019-05-23T17:09:42.432Z,3.20
2019-05-23T17:12:35.073Z,3.03
2019-05-23T17:15:21.323Z,2.67
2019-05-23T17:18:26.292Z,3.00
2019-05-23T17:21:21.525Z,3.00
2019-05-23T17:24:30.985Z,3.07
2019-05-23T17:27:29.187Z,2.90
2019-05-23T17:30:56.955Z,3.10
2019-05-23T17:33:32.065Z,2.83
2019-05-23T17:36:11.050Z,3.23
2019-05-23T17:38:48.530Z,2.87
2019-05-23T17:41:23.258Z,3.27
2019-05-23T17:44:17.418Z,3.30
2019-05-23T17:46:51.217Z,3.50
2019-05-23T17:49:24.851Z,3.03
2019-05-23T17:52:00.024Z,2.80
2019-05-23T17:54:35.812Z,2.87
2019-05-23T17:57:11.476Z,3.77
2019-05-23T17:59:46.872Z,2.90
2019-05-23T18:02:22.891Z,3.10
2019-05-23T18:05:00.414Z,2.87
2019-05-23T18:07:42.510Z,3.43
2019-05-23T18:10:22.233Z,3.10
2019-05-23T18:13:06.643Z,3.63
2019-05-23T18:16:26.041Z,3.73
2019-05-23T18:19:01.986Z,3.20
2019-05-23T18:21:39.567Z,3.30
2019-05-23T18:24:42.949Z,3.23
2019-05-23T18:27:36.466Z,3.60
2019-05-23T18:31:10.224Z,3.93
2019-05-23T18:33:56.847Z,3.17
2019-05-23T18:37:12.570Z,3.50
2019-05-23T18:41:08.724Z,3.20
2019-05-23T18:43:42.356Z,3.00
2019-05-23T18:46:41.915Z,2.80
2019-05-23T18:49:17.305Z,3.10
2019-05-23T18:51:52.641Z,3.43
2019-05-23T18:54:29.773Z,3.23
2019-05-23T18:57:07.375Z,3.07
2019-05-23T18:59:41.341Z,3.00
2019-05-23T19:02:17.713Z,2.97
2019-05-23T19:05:04.467Z,3.30
2019-05-23T19:08:06.793Z,2.97
2019-05-23T19:10:41.775Z,2.60
2019-05-23T19:13:17.575Z,2.70
2019-05-23T19:15:56.688Z,3.00
2019-05-23T19:18:30.128Z,3.20
2019-05-23T19:21:09.880Z,3.23
2019-05-23T19:23:46.385Z,2.97
2019-05-23T19:26:20.715Z,2.80
2019-05-23T19:28:54.630Z,3.50
2019-05-23T19:31:29.295Z,3.33
2019-05-23T19:34:21.093Z,3.00
2019-05-23T19:36:56.008Z,3.30
2019-05-23T19:39:31.457Z,3.40
2019-05-23T19:42:07.080Z,3.33
2019-05-23T19:47:21.454Z,3.07
2019-05-23T19:49:54.921Z,2.90
2019-05-23T19:52:29.916Z,3.10
2019-05-23T19:55:05.452Z,3.20
2019-05-23T19:57:38.906Z,2.80
2019-05-23T20:00:16.216Z,3.23
2019-05-23T20:03:04.474Z,3.30
2019-05-23T20:05:39.236Z,3.27
2019-05-23T20:08:11.581Z,3.00
2019-05-23T20:10:43.841Z,2.83
2019-05-23T20:13:18.525Z,3.50
2019-05-23T20:15:50.441Z,3.03
2019-05-23T20:18:23.095Z,3.47
2019-05-23T20:20:55.227Z,3.87
2019-05-23T20:23:27.734Z,3.30
2019-05-23T20:25:59.935Z,3.77
2019-05-23T20:28:32.480Z,3.40
2019-05-23T20:31:05.064Z,2.87
2019-05-23T20:33:37.297Z,3.30
2019-05-23T20:36:13.208Z,3.60
2019-05-23T20:38:46.036Z,3.23
2019-05-23T20:41:19.030Z,3.43
2019-05-23T20:43:51.255Z,3.40
2019-05-23T20:46:23.633Z,3.33
2019-05-23T20:48:55.834Z,3.37
2019-05-23T20:51:28.089Z,3.50
2019-05-23T20:54:01.389Z,3.27
2019-05-23T20:56:33.720Z,3.30
2019-05-23T20:59:06.026Z,3.20
2019-05-23T21:01:40.375Z,3.40
2019-05-23T21:04:12.858Z,3.07
2019-05-23T21:06:45.054Z,3.47
2019-05-23T21:09:17.429Z,3.40
2019-05-23T21:11:51.843Z,3.40
2019-05-23T21:14:24.279Z,3.80
2019-05-23T21:16:56.469Z,3.90
2019-05-23T21:19:28.682Z,3.60
2019-05-23T21:22:00.875Z,3.33
2019-05-23T21:24:34.158Z,3.43
2019-05-23T21:27:06.516Z,3.93
2019-05-23T21:29:38.808Z,3.63
2019-05-23T21:32:11.482Z,3.77
2019-05-23T21:34:43.760Z,3.77
2019-05-23T21:37:16.029Z,3.50
2019-05-23T21:39:48.319Z,4.00
2019-05-23T21:42:20.594Z,3.40
2019-05-23T21:44:52.818Z,3.60
2019-05-23T21:47:25.005Z,3.87
2019-05-23T21:49:57.227Z,3.70
2019-05-23T21:52:29.498Z,3.93
2019-05-23T21:55:01.778Z,3.57
2019-05-23T21:57:33.972Z,3.50
2019-05-23T22:00:08.110Z,3.57
2019-05-23T22:02:41.971Z,3.50
2019-05-23T22:05:16.441Z,3.90
2019-05-23T22:07:49.039Z,3.60
2019-05-23T22:10:21.429Z,3.60
2019-05-23T22:13:03.808Z,3.80
2019-05-23T22:15:39.421Z,3.47
2019-05-23T22:18:11.705Z,3.70
2019-05-23T22:20:44.078Z,3.43
2019-05-23T22:23:16.262Z,3.50
2019-05-23T22:25:48.555Z,3.80
2019-05-23T22:28:21.305Z,3.70
2019-05-23T22:30:53.460Z,3.43
2019-05-23T22:33:27.243Z,3.63
2019-05-23T22:36:00.413Z,4.30
2019-05-23T22:38:32.617Z,3.77
2019-05-23T22:41:04.892Z,4.30
2019-05-23T22:43:38.079Z,3.90
2019-05-23T22:46:10.900Z,4.03
2019-05-23T22:48:43.225Z,3.77
2019-05-23T22:51:15.446Z,4.00
2019-05-23T22:53:47.696Z,3.70
2019-05-23T22:56:19.931Z,3.90
2019-05-23T22:58:52.121Z,3.63
2019-05-23T23:01:26.437Z,3.77
2019-05-23T23:03:58.636Z,3.97
2019-05-23T23:06:31.233Z,4.17
2019-05-23T23:09:03.459Z,3.70
2019-05-23T23:11:35.750Z,3.20
2019-05-23T23:14:08.023Z,3.90
2019-05-23T23:16:40.385Z,4.27
2019-05-23T23:19:12.663Z,3.50
2019-05-23T23:21:45.958Z,3.60
2019-05-23T23:24:18.220Z,3.57
2019-05-23T23:26:50.598Z,3.97
2019-05-23T23:29:22.949Z,4.43
2019-05-23T23:31:55.095Z,4.03
2019-05-23T23:34:27.329Z,3.53
2019-05-23T23:36:59.632Z,4.17
2019-05-23T23:39:31.813Z,4.03
2019-05-23T23:42:04.988Z,4.03
2019-05-23T23:44:36.220Z,3.90
2019-05-23T23:47:26.182Z,3.57
2019-05-23T23:50:15.739Z,3.97
2019-05-23T23:53:05.474Z,3.60
2019-05-23T23:55:55.545Z,4.03
2019-05-23T23:58:26.796Z,3.97
